createdAt,value
2022-12-03T00:00:36.447Z,101662.47
2022-12-03T00:03:39.044Z,101666.47
2022-12-03T00:06:43.146Z,101661.81
2022-12-03T00:09:46.028Z,101653.44
2022-12-03T00:12:49.842Z,101659.19
2022-12-03T00:15:52.368Z,101660.72
2022-12-03T00:18:55.102Z,101658.47
2022-12-03T00:21:57.562Z,101659.78
2022-12-03T00:25:00.158Z,101648.34
2022-12-03T00:28:04.179Z,101658.75
2022-12-03T00:31:07.297Z,101660.44
2022-12-03T00:34:09.863Z,101667.13
2022-12-03T00:37:12.304Z,101679.22
2022-12-03T00:40:14.988Z,101685.88
2022-12-03T00:43:18.757Z,101691.25
2022-12-03T00:46:21.854Z,101698.34
2022-12-03T00:49:24.380Z,101688.69
2022-12-03T00:52:26.875Z,101695.91
2022-12-03T00:55:29.298Z,101701.53
2022-12-03T00:58:33.083Z,101709.63
2022-12-03T01:01:35.581Z,101706.59
2022-12-03T01:04:38.276Z,101702.19
2022-12-03T01:07:40.804Z,101703.72
2022-12-03T01:10:43.289Z,101704.34
2022-12-03T01:13:47.104Z,101712.69
2022-12-03T01:16:49.653Z,101713.19
2022-12-03T01:19:52.652Z,101707.13
2022-12-03T01:22:55.030Z,101717.31
2022-12-03T01:25:57.388Z,101706.59
2022-12-03T01:29:01.206Z,101717.41
2022-12-03T01:32:19.486Z,101721.00
2022-12-03T01:35:22.097Z,101714.63
2022-12-03T01:38:24.579Z,101716.00
2022-12-03T01:41:27.768Z,101712.72
2022-12-03T01:44:34.787Z,101713.31
2022-12-03T01:47:38.322Z,101706.94
2022-12-03T01:50:42.635Z,101717.66
2022-12-03T01:53:46.031Z,101712.91
2022-12-03T01:56:49.172Z,101710.88
2022-12-03T01:59:54.175Z,101714.13
2022-12-03T02:02:59.529Z,101700.94
2022-12-03T02:06:02.096Z,101710.72
2022-12-03T02:09:08.448Z,101697.59
2022-12-03T02:12:11.400Z,101693.41
2022-12-03T02:15:15.315Z,101698.69
2022-12-03T02:18:18.232Z,101695.34
2022-12-03T02:21:29.274Z,101692.63
2022-12-03T02:24:37.319Z,101690.28
2022-12-03T02:27:41.665Z,101689.00
2022-12-03T02:30:44.196Z,101682.09
2022-12-03T02:33:46.748Z,101692.69
2022-12-03T02:36:49.190Z,101691.19
2022-12-03T02:39:55.023Z,101692.91
2022-12-03T02:43:01.235Z,101705.97
2022-12-03T02:46:05.038Z,101707.19
2022-12-03T02:49:07.847Z,101696.63
2022-12-03T02:52:10.986Z,101694.66
2022-12-03T02:55:15.396Z,101693.84
2022-12-03T02:58:20.878Z,101691.69
2022-12-03T03:01:23.365Z,101695.66
2022-12-03T03:04:25.965Z,101695.75
2022-12-03T03:07:28.771Z,101700.50
2022-12-03T03:10:33.986Z,101694.28
2022-12-03T03:13:38.988Z,101686.25
2022-12-03T03:16:41.663Z,101694.41
2022-12-03T03:19:44.374Z,101700.22
2022-12-03T03:22:46.794Z,101697.81
2022-12-03T03:25:54.635Z,101698.69
2022-12-03T03:29:02.048Z,101704.78
2022-12-03T03:32:05.224Z,101704.47
2022-12-03T03:35:10.809Z,101707.09
2022-12-03T03:38:13.988Z,101705.00
2022-12-03T03:41:17.243Z,101699.09
2022-12-03T03:44:21.139Z,101702.09
2022-12-03T03:47:24.084Z,101700.19
2022-12-03T03:50:28.266Z,101698.59
2022-12-03T03:53:30.997Z,101706.09
2022-12-03T03:56:34.573Z,101707.22
2022-12-03T03:59:38.435Z,101697.06
2022-12-03T04:02:41.580Z,101694.59
2022-12-03T04:05:44.088Z,101695.41
2022-12-03T04:08:47.809Z,101697.00
2022-12-03T04:12:08.912Z,101698.22
2022-12-03T04:15:12.711Z,101694.53
2022-12-03T04:18:33.503Z,101700.47
2022-12-03T04:21:54.806Z,101688.06
2022-12-03T04:25:17.221Z,101704.84
2022-12-03T04:28:38.402Z,101709.66
2022-12-03T04:32:00.703Z,101702.56
2022-12-03T04:35:22.367Z,101703.13
2022-12-03T04:38:24.900Z,101703.03
2022-12-03T04:41:27.351Z,101695.97
2022-12-03T04:44:38.898Z,101699.25
2022-12-03T04:47:42.812Z,101691.00
2022-12-03T04:50:45.310Z,101692.13
2022-12-03T04:53:47.877Z,101691.91
2022-12-03T04:56:50.311Z,101698.16
2022-12-03T04:59:54.154Z,101691.31
2022-12-03T05:02:57.944Z,101700.66
2022-12-03T05:06:00.372Z,101697.84
2022-12-03T05:09:03.077Z,101702.88
2022-12-03T05:12:05.982Z,101711.16
2022-12-03T05:15:09.127Z,101725.72
2022-12-03T05:18:13.011Z,101734.19
2022-12-03T05:21:15.593Z,101723.25
2022-12-03T05:24:18.040Z,101719.53
2022-12-03T05:27:23.906Z,101729.00
2022-12-03T05:30:27.033Z,101726.63
2022-12-03T05:33:30.919Z,101723.81
2022-12-03T05:36:33.385Z,101729.81
2022-12-03T05:39:35.791Z,101721.03
2022-12-03T05:42:56.711Z,101722.44
2022-12-03T05:45:59.205Z,101727.97
2022-12-03T05:49:03.167Z,101725.50
2022-12-03T05:52:06.004Z,101725.72
2022-12-03T05:55:09.154Z,101726.38
2022-12-03T05:58:11.988Z,101725.72
2022-12-03T06:01:14.400Z,101723.81
2022-12-03T06:04:18.140Z,101735.25
2022-12-03T06:07:20.734Z,101737.44
2022-12-03T06:10:25.462Z,101741.66
2022-12-03T06:13:27.864Z,101736.81
2022-12-03T06:16:30.387Z,101742.69
2022-12-03T06:19:34.431Z,101748.41
2022-12-03T06:22:36.847Z,101746.78
2022-12-03T06:25:39.361Z,101737.44
2022-12-03T06:28:46.338Z,101741.69
2022-12-03T06:31:48.853Z,101743.44
2022-12-03T06:34:53.050Z,101737.72
2022-12-03T06:37:55.796Z,101736.97
2022-12-03T06:40:58.234Z,101735.03
2022-12-03T06:44:00.752Z,101743.16
2022-12-03T06:47:03.248Z,101748.84
2022-12-03T06:50:08.905Z,101744.81
2022-12-03T06:53:11.347Z,101749.03
2022-12-03T06:56:13.793Z,101748.03
2022-12-03T06:59:16.250Z,101744.38
2022-12-03T07:02:18.886Z,101747.97
2022-12-03T07:05:23.503Z,101741.19
2022-12-03T07:08:26.205Z,101741.66
2022-12-03T07:11:31.436Z,101743.22
2022-12-03T07:14:33.998Z,101749.97
2022-12-03T07:17:36.446Z,101748.03
2022-12-03T07:20:40.223Z,101751.28
2022-12-03T07:23:42.868Z,101748.91
2022-12-03T07:26:45.416Z,101748.28
2022-12-03T07:29:48.054Z,101745.06
2022-12-03T07:32:50.576Z,101751.41
2022-12-03T07:35:54.418Z,101756.47
2022-12-03T07:39:15.605Z,101760.81
2022-12-03T07:42:19.046Z,101760.31
2022-12-03T07:45:21.439Z,101758.59
2022-12-03T07:48:24.083Z,101743.63
2022-12-03T07:51:32.130Z,101761.75
2022-12-03T07:54:35.219Z,101753.72
2022-12-03T07:57:37.838Z,101763.09
2022-12-03T08:00:40.531Z,101767.28
2022-12-03T08:03:43.121Z,101766.91
2022-12-03T08:06:47.878Z,101770.75
2022-12-03T08:09:50.665Z,101755.09
2022-12-03T08:12:53.790Z,101755.84
2022-12-03T08:16:01.156Z,101758.78
2022-12-03T08:19:09.419Z,101760.34
2022-12-03T08:22:14.686Z,101762.72
2022-12-03T08:25:21.142Z,101754.97
2022-12-03T08:28:28.140Z,101769.47
2022-12-03T08:31:33.650Z,101767.50
2022-12-03T08:34:40.369Z,101763.59
2022-12-03T08:37:44.356Z,101762.00
2022-12-03T08:40:49.289Z,101760.56
2022-12-03T08:43:51.701Z,101766.59
2022-12-03T08:46:59.996Z,101769.59
2022-12-03T08:50:26.257Z,101782.75
2022-12-03T08:53:35.354Z,101780.63
2022-12-03T08:56:37.943Z,101780.75
2022-12-03T08:59:45.365Z,101780.97
2022-12-03T09:02:51.459Z,101766.75
2022-12-03T09:05:53.961Z,101764.22
2022-12-03T09:09:01.131Z,101762.63
2022-12-03T09:12:06.737Z,101768.13
2022-12-03T09:15:09.864Z,101764.97
2022-12-03T09:18:12.404Z,101773.56
2022-12-03T09:21:15.036Z,101771.09
2022-12-03T09:24:19.588Z,101770.50
2022-12-03T09:27:22.888Z,101770.78
2022-12-03T09:30:25.500Z,101768.72
2022-12-03T09:33:28.067Z,101760.56
2022-12-03T09:36:30.689Z,101761.31
2022-12-03T09:39:34.798Z,101751.66
2022-12-03T09:42:58.576Z,101755.03
2022-12-03T09:46:01.409Z,101738.72
2022-12-03T09:49:12.232Z,101737.47
2022-12-03T09:52:24.155Z,101733.25
2022-12-03T09:55:29.987Z,101730.28
2022-12-03T09:58:34.937Z,101730.41
2022-12-03T10:01:39.067Z,101729.31
2022-12-03T10:04:41.657Z,101715.25
2022-12-03T10:07:44.375Z,101714.88
2022-12-03T10:10:50.486Z,101718.53
2022-12-03T10:13:56.019Z,101716.28
2022-12-03T10:17:00.126Z,101716.09
2022-12-03T10:20:02.757Z,101703.25
2022-12-03T10:23:05.675Z,101703.56
2022-12-03T10:26:09.611Z,101692.91
2022-12-03T10:29:13.374Z,101694.22
2022-12-03T10:32:15.843Z,101686.53
2022-12-03T10:35:20.721Z,101681.97
2022-12-03T10:38:23.580Z,101684.31
2022-12-03T10:41:28.847Z,101690.31
2022-12-03T10:44:31.283Z,101681.94
2022-12-03T10:47:33.878Z,101682.63
2022-12-03T10:50:37.212Z,101682.91
2022-12-03T10:53:40.817Z,101676.19
2022-12-03T10:56:46.156Z,101673.44
2022-12-03T10:59:49.466Z,101667.97
2022-12-03T11:03:18.138Z,101670.94
2022-12-03T11:06:22.584Z,101663.25
2022-12-03T11:09:28.509Z,101657.06
2022-12-03T11:12:34.674Z,101655.25
2022-12-03T11:15:45.122Z,101643.31
2022-12-03T11:19:02.257Z,101638.78
2022-12-03T11:22:23.929Z,101646.06
2022-12-03T11:25:49.557Z,101650.88
2022-12-03T11:28:56.085Z,101648.72
2022-12-03T11:31:59.327Z,101652.16
2022-12-03T11:35:01.747Z,101647.28
2022-12-03T11:38:50.717Z,101635.97
2022-12-03T11:42:29.506Z,101631.97
2022-12-03T11:45:35.953Z,101629.25
2022-12-03T11:48:44.155Z,101637.50
2022-12-03T11:51:47.108Z,101638.50
2022-12-03T11:54:53.865Z,101639.88
2022-12-03T11:58:01.965Z,101635.00
2022-12-03T12:01:08.000Z,101624.31
2022-12-03T12:04:28.198Z,101630.81
2022-12-03T12:07:50.270Z,101634.09
2022-12-03T12:10:52.822Z,101623.81
2022-12-03T12:13:57.167Z,101626.63
2022-12-03T12:17:03.284Z,101622.28
2022-12-03T12:20:23.523Z,101621.59
2022-12-03T12:23:29.089Z,101616.97
2022-12-03T12:26:31.526Z,101614.78
2022-12-03T12:29:34.715Z,101607.22
2022-12-03T12:32:45.935Z,101605.72
2022-12-03T12:35:48.809Z,101598.69
2022-12-03T12:38:51.264Z,101603.91
2022-12-03T12:41:55.373Z,101601.22
2022-12-03T12:45:01.231Z,101592.28
2022-12-03T12:48:15.688Z,101591.72
2022-12-03T12:51:18.844Z,101586.75
2022-12-03T12:54:21.459Z,101587.66
2022-12-03T12:57:24.299Z,101577.72
2022-12-03T13:00:26.824Z,101577.38
2022-12-03T13:03:34.034Z,101578.72
2022-12-03T13:06:36.530Z,101577.66
2022-12-03T13:09:39.550Z,101566.97
2022-12-03T13:12:42.156Z,101564.69
2022-12-03T13:15:50.510Z,101570.13
2022-12-03T13:18:55.565Z,101558.56
2022-12-03T13:22:01.760Z,101561.41
2022-12-03T13:25:58.150Z,101558.47
2022-12-03T13:28:57.753Z,101562.19
2022-12-03T13:32:10.111Z,101559.66
2022-12-03T13:35:25.386Z,101560.66
2022-12-03T13:38:28.052Z,101551.31
2022-12-03T13:41:49.173Z,101548.00
2022-12-03T13:44:53.233Z,101545.53
2022-12-03T13:47:58.565Z,101547.28
2022-12-03T13:51:26.207Z,101549.88
2022-12-03T13:54:31.282Z,101550.25
2022-12-03T13:57:33.711Z,101549.00
2022-12-03T14:00:36.250Z,101550.13
2022-12-03T14:03:38.817Z,101559.97
2022-12-03T14:06:42.746Z,101558.69
2022-12-03T14:09:45.256Z,101557.91
2022-12-03T14:12:47.669Z,101556.53
2022-12-03T14:15:50.193Z,101565.41
2022-12-03T14:18:52.842Z,101562.50
2022-12-03T14:21:56.775Z,101560.44
2022-12-03T14:24:59.273Z,101571.25
2022-12-03T14:28:01.926Z,101583.28
2022-12-03T14:31:06.011Z,101582.69
2022-12-03T14:34:08.888Z,101582.06
2022-12-03T14:37:12.863Z,101585.09
2022-12-03T14:40:20.972Z,101575.13
2022-12-03T14:43:24.156Z,101584.72
2022-12-03T14:46:26.858Z,101596.81
2022-12-03T14:49:44.894Z,101592.56
2022-12-03T14:52:49.117Z,101592.44
2022-12-03T14:55:51.552Z,101587.53
2022-12-03T14:58:54.202Z,101591.50
2022-12-03T15:01:56.989Z,101587.69
2022-12-03T15:04:59.599Z,101586.91
2022-12-03T15:08:03.532Z,101575.97
2022-12-03T15:11:06.494Z,101596.31
2022-12-03T15:14:08.991Z,101591.22
2022-12-03T15:17:11.545Z,101601.38
2022-12-03T15:20:14.440Z,101605.63
2022-12-03T15:23:18.508Z,101614.50
2022-12-03T15:26:21.217Z,101610.72
2022-12-03T15:29:23.772Z,101621.03
2022-12-03T15:32:26.336Z,101621.16
2022-12-03T15:35:28.901Z,101629.00
2022-12-03T15:38:34.526Z,101604.50
2022-12-03T15:41:37.469Z,101628.13
2022-12-03T15:44:40.043Z,101623.19
2022-12-03T15:47:42.557Z,101623.94
2022-12-03T15:50:45.263Z,101628.78
2022-12-03T15:53:49.175Z,101628.75
2022-12-03T15:56:57.002Z,101632.09
2022-12-03T16:00:00.321Z,101628.53
2022-12-03T16:03:02.941Z,101625.22
2022-12-03T16:06:06.001Z,101629.31
2022-12-03T16:09:10.195Z,101635.72
2022-12-03T16:12:12.618Z,101636.44
2022-12-03T16:15:16.496Z,101625.44
2022-12-03T16:18:19.005Z,101623.53
2022-12-03T16:21:26.423Z,101624.47
2022-12-03T16:24:31.019Z,101629.97
2022-12-03T16:27:33.527Z,101625.50
2022-12-03T16:30:37.097Z,101634.28
2022-12-03T16:33:39.619Z,101630.31
2022-12-03T16:36:42.132Z,101636.63
2022-12-03T16:39:46.352Z,101630.41
2022-12-03T16:42:48.747Z,101632.94
2022-12-03T16:46:02.127Z,101629.97
2022-12-03T16:49:06.217Z,101631.97
2022-12-03T16:52:08.722Z,101635.16
2022-12-03T16:55:13.333Z,101632.47
2022-12-03T16:58:18.645Z,101628.00
2022-12-03T17:01:23.446Z,101632.78
2022-12-03T17:04:29.047Z,101628.13
2022-12-03T17:07:31.515Z,101625.03
2022-12-03T17:10:35.554Z,101617.88
2022-12-03T17:13:38.003Z,101625.25
2022-12-03T17:16:40.416Z,101620.56
2022-12-03T17:19:42.947Z,101616.09
2022-12-03T17:22:46.462Z,101624.94
2022-12-03T17:25:50.381Z,101620.06
2022-12-03T17:28:53.058Z,101625.84
2022-12-03T17:31:55.574Z,101614.03
2022-12-03T17:34:58.228Z,101628.38
2022-12-03T17:38:02.510Z,101623.09
2022-12-03T17:41:07.474Z,101621.97
2022-12-03T17:44:12.084Z,101617.31
2022-12-03T17:47:16.700Z,101613.22
2022-12-03T17:50:19.369Z,101610.31
2022-12-03T17:53:21.991Z,101614.31
2022-12-03T17:56:26.292Z,101617.53
2022-12-03T17:59:28.922Z,101612.06
2022-12-03T18:02:31.547Z,101619.34
2022-12-03T18:05:34.097Z,101612.16
2022-12-03T18:08:36.506Z,101624.88
2022-12-03T18:11:40.539Z,101617.91
2022-12-03T18:14:43.067Z,101611.63
2022-12-03T18:17:45.707Z,101611.38
2022-12-03T18:20:48.403Z,101609.13
2022-12-03T18:23:51.022Z,101597.16
2022-12-03T18:26:56.179Z,101600.63
2022-12-03T18:29:58.885Z,101606.06
2022-12-03T18:33:01.364Z,101614.66
2022-12-03T18:36:04.937Z,101605.56
2022-12-03T18:39:12.273Z,101611.34
2022-12-03T18:42:17.961Z,101606.34
2022-12-03T18:45:20.780Z,101612.16
2022-12-03T18:48:23.673Z,101612.16
2022-12-03T18:51:28.653Z,101614.69
2022-12-03T18:54:31.238Z,101615.47
2022-12-03T18:57:35.196Z,101603.28
2022-12-03T19:00:39.725Z,101610.31
2022-12-03T19:03:42.236Z,101602.41
2022-12-03T19:06:44.856Z,101601.97
2022-12-03T19:09:48.687Z,101613.97
2022-12-03T19:12:53.579Z,101604.94
2022-12-03T19:15:56.385Z,101602.63
2022-12-03T19:18:59.837Z,101608.66
2022-12-03T19:22:03.635Z,101608.22
2022-12-03T19:25:06.562Z,101604.50
2022-12-03T19:28:10.335Z,101603.53
2022-12-03T19:31:16.350Z,101607.16
2022-12-03T19:34:19.583Z,101604.56
2022-12-03T19:37:22.233Z,101608.50
2022-12-03T19:40:24.873Z,101614.84
2022-12-03T19:43:29.165Z,101611.28
2022-12-03T19:46:31.957Z,101614.78
2022-12-03T19:49:34.710Z,101616.66
2022-12-03T19:52:38.339Z,101622.19
2022-12-03T19:55:41.000Z,101617.34
2022-12-03T19:58:46.783Z,101619.72
2022-12-03T20:01:49.627Z,101623.63
2022-12-03T20:04:52.307Z,101625.06
2022-12-03T20:07:55.009Z,101627.75
2022-12-03T20:11:07.394Z,101618.16
2022-12-03T20:14:14.731Z,101620.94
2022-12-03T20:17:17.472Z,101624.78
2022-12-03T20:20:20.526Z,101616.44
2022-12-03T20:23:23.307Z,101627.75
2022-12-03T20:26:26.574Z,101626.69
2022-12-03T20:29:30.896Z,101627.75
2022-12-03T20:32:34.994Z,101629.34
2022-12-03T20:35:37.961Z,101628.81
2022-12-03T20:38:40.859Z,101623.09
2022-12-03T20:41:44.895Z,101620.41
2022-12-03T20:44:51.173Z,101615.09
2022-12-03T20:47:53.870Z,101613.25
2022-12-03T20:50:56.540Z,101618.69
2022-12-03T20:54:00.174Z,101621.66
2022-12-03T20:57:03.065Z,101624.88
2022-12-03T21:00:08.404Z,101619.16
2022-12-03T21:03:11.027Z,101640.16
2022-12-03T21:06:14.601Z,101623.28
2022-12-03T21:09:17.349Z,101620.28
2022-12-03T21:12:21.095Z,101617.41
2022-12-03T21:15:25.458Z,101616.56
2022-12-03T21:18:28.179Z,101600.00
2022-12-03T21:21:31.626Z,101596.63
2022-12-03T21:24:34.462Z,101600.19
2022-12-03T21:27:55.556Z,101604.59
2022-12-03T21:31:04.512Z,101604.28
2022-12-03T21:34:08.532Z,101600.25
2022-12-03T21:37:11.267Z,101595.09
2022-12-03T21:40:14.038Z,101598.56
2022-12-03T21:43:16.519Z,101597.97
2022-12-03T21:47:09.315Z,101607.34
2022-12-03T21:49:44.083Z,101605.91
2022-12-03T21:52:46.561Z,101612.53
2022-12-03T21:55:49.159Z,101621.66
2022-12-03T21:58:52.320Z,101628.41
2022-12-03T22:01:56.466Z,101627.59
2022-12-03T22:04:59.155Z,101631.41
2022-12-03T22:08:01.699Z,101636.09
2022-12-03T22:11:05.697Z,101633.22
2022-12-03T22:14:09.835Z,101632.03
2022-12-03T22:17:14.660Z,101634.84
2022-12-03T22:20:17.202Z,101640.97
2022-12-03T22:23:19.622Z,101634.63
2022-12-03T22:26:22.458Z,101641.88
2022-12-03T22:29:24.987Z,101632.03
2022-12-03T22:32:28.876Z,101634.22
2022-12-03T22:35:33.104Z,101635.81
2022-12-03T22:38:35.614Z,101634.03
2022-12-03T22:41:38.164Z,101637.59
2022-12-03T22:44:40.667Z,101633.53
2022-12-03T22:47:44.483Z,101627.34
2022-12-03T22:50:48.129Z,101628.97
2022-12-03T22:53:54.757Z,101637.00
2022-12-03T22:56:57.321Z,101630.97
2022-12-03T22:59:59.916Z,101632.72
2022-12-03T23:03:04.770Z,101629.47
2022-12-03T23:06:11.104Z,101625.84
2022-12-03T23:09:13.830Z,101625.47
2022-12-03T23:12:16.299Z,101611.84
2022-12-03T23:15:18.751Z,101612.94
2022-12-03T23:18:22.594Z,101614.25
2022-12-03T23:21:29.886Z,101616.22
2022-12-03T23:24:33.116Z,101613.22
2022-12-03T23:27:35.686Z,101614.50
2022-12-03T23:30:39.262Z,101613.81
2022-12-03T23:33:43.048Z,101604.19
2022-12-03T23:36:45.472Z,101609.94
2022-12-03T23:39:48.214Z,101610.47
2022-12-03T23:42:50.670Z,101612.06
2022-12-03T23:45:53.083Z,101604.56
2022-12-03T23:48:58.782Z,101612.31
2022-12-03T23:52:01.268Z,101608.34
2022-12-03T23:55:04.202Z,101600.00
2022-12-03T23:58:07.702Z,101611.81
